Weather History for Wright-Patt AFB, OH

Change the Weather History Date:

Sunday, March 24, 2013

  Actual Average Record
Temperature  
Mean Temperature 32 °F -  
Max Temperature 34 °F 52 °F 73 °F (2003)
Min Temperature 30 °F 31 °F 20 °F (2014)
Degree Days  
Heating Degree Days 33    
Moisture  
Dew Point 28 °F    
Average Humidity 83    
Maximum Humidity 100    
Minimum Humidity 60    
Precipitation  
Precipitation 0.40 in - - ()
Sea Level Pressure  
Sea Level Pressure 29.62 in    
Wind  
Wind Speed 12 mph (NE)    
Max Wind Speed 22 mph    
Max Gust Speed 28 mph    
Visibility 5 miles    
Events Fog , Rain , Snow    
Averages and records for this station are not official NWS values.
T = Trace of Precipitation, MM = Missing Value Source: NWS Daily Summary

Daily Weather History Graph

Daily Weather History Graph

Search for Another Location

Airport:

Trip Planner

Search our weather history database for the weather conditions in past years. The results will help you decide how hot, cold, wet, or windy it might be!

Date:

Astronomy

Mar. 24, 2013 Rise Set
Actual Time 7:32 AM EDT 7:52 PM EDT
Civil Twilight 7:05 AM EDT 8:19 PM EDT
Nautical Twilight 6:34 AM EDT 8:51 PM EDT
Astronomical Twilight 6:01 AM EDT 9:23 PM EDT
Moon 5:20 PM EDT (3/24) 5:42 AM EDT (3/24)
Length of Visible Light 13h 13m
Length of Day
12h 19m
Waxing Gibbous, 91% of the Moon is Illuminated
Mar 24
Waxing Gibbous
Mar 27
Full
Apr 3
Last Quarter
Apr 10
New
Apr 18
First Quarter

Hourly Weather History & Observations

Time (EDT) Temp. Windchill Dew Point Humidity Pressure Visibility Wind Dir Wind Speed Gust Speed Precip Events Conditions
12:55 AM 33.1 °F 23.9 °F 25.3 °F 73% 29.93 in 10.0 mi NE 12.7 mph - N/A   Partly Cloudy
1:55 AM 32.2 °F 25.0 °F 25.2 °F 75% 29.92 in 10.0 mi NE 8.1 mph - N/A   Mostly Cloudy
2:55 AM 30.9 °F 24.3 °F 24.6 °F 77% 29.93 in 10.0 mi NE 6.9 mph - N/A   Mostly Cloudy
3:55 AM 31.6 °F 26.0 °F 24.6 °F 75% 29.93 in 10.0 mi NE 5.8 mph - N/A   Mostly Cloudy
4:55 AM 32.0 °F 24.2 °F 23.9 °F 72% 29.91 in 10.0 mi ENE 9.2 mph - N/A   Mostly Cloudy
5:55 AM - - - N/A% 29.87 in 10.0 mi ENE 9.2 mph - N/A   Mostly Cloudy
6:55 AM 32.4 °F 22.5 °F 23.4 °F 69% 29.84 in 10.0 mi ENE 13.8 mph - N/A   Mostly Cloudy
7:55 AM 32.4 °F 23.0 °F 22.8 °F 68% 29.81 in 10.0 mi NE 12.7 mph - N/A   Overcast
8:55 AM 32.5 °F 24.8 °F 22.5 °F 66% 29.79 in 10.0 mi NE 9.2 mph - N/A   Overcast
9:55 AM 34.0 °F 26.6 °F 22.5 °F 63% 29.79 in 10.0 mi NE 9.2 mph - N/A   Overcast
10:55 AM 34.3 °F 25.0 °F 21.9 °F 60% 29.77 in 10.0 mi NE 13.8 mph - N/A   Overcast
11:11 AM 33.8 °F 24.8 °F 21.2 °F 60% 29.75 in 10.0 mi NE 12.7 mph - N/A Snow Light Snow
11:55 AM 33.8 °F 24.8 °F 22.5 °F 63% 29.74 in 10.0 mi NE 12.7 mph - 0.00 in Snow Light Snow
12:17 PM 33.8 °F 24.3 °F 23.0 °F 65% 29.72 in 10.0 mi NE 13.8 mph - N/A   Overcast
12:25 PM 33.8 °F 24.3 °F 23.0 °F 65% 29.72 in 2.0 mi NE 13.8 mph - N/A Snow Light Snow
12:37 PM 33.8 °F 24.3 °F 24.8 °F 70% 29.72 in 1.2 mi NE 13.8 mph - N/A Snow Light Snow
12:43 PM 33.8 °F 23.9 °F 26.6 °F 75% 29.71 in 0.8 mi NE 15.0 mph - N/A Snow Light Snow
12:48 PM 32.0 °F 22.5 °F 26.6 °F 80% 29.71 in 0.8 mi NE 12.7 mph - N/A Snow Light Snow
12:55 PM 32.2 °F 21.4 °F 27.7 °F 83% 29.71 in 0.8 mi NE 16.1 mph - 0.00 in Snow Light Snow
1:06 PM 32.0 °F 21.6 °F 28.4 °F 87% 29.70 in 0.5 mi NE 15.0 mph - N/A Fog , Snow Light Snow
1:24 PM 32.0 °F 21.6 °F 28.4 °F 87% 29.69 in 1.0 mi ENE 15.0 mph - N/A Snow Light Snow
1:41 PM 32.0 °F 22.1 °F 28.4 °F 87% 29.68 in 2.0 mi ENE 13.8 mph - N/A Snow Light Snow
1:55 PM 32.0 °F 22.1 °F 29.1 °F 89% 29.67 in 2.0 mi NE 13.8 mph - 0.04 in Snow Light Snow
2:01 PM 32.0 °F 20.5 °F 28.4 °F 87% 29.66 in 2.0 mi NE 18.4 mph - N/A Snow Light Snow
2:24 PM 32.0 °F 20.8 °F 28.4 °F 87% 29.65 in 2.0 mi NE 17.3 mph - N/A Snow Light Snow
2:55 PM 32.4 °F 22.5 °F 28.6 °F 86% 29.63 in 2.0 mi NE 13.8 mph - 0.00 in Snow Light Snow
3:22 PM 32.0 °F 21.2 °F 30.2 °F 93% 29.61 in 2.0 mi NE 16.1 mph - N/A Snow Light Snow
3:38 PM 32.0 °F 21.2 °F 30.2 °F 93% 29.57 in 2.0 mi NE 16.1 mph - N/A Snow Light Snow
3:55 PM 32.7 °F 21.4 °F 30.2 °F 90% 29.55 in 2.0 mi NE 18.4 mph - 0.00 in Snow Light Snow
4:07 PM 33.8 °F 22.2 °F 30.2 °F 87% 29.53 in 2.0 mi NE 20.7 mph 26.5 mph N/A Snow Light Snow
4:28 PM 33.8 °F 25.3 °F 30.2 °F 87% 29.56 in 5.0 mi ENE 11.5 mph 25.3 mph N/A Snow Light Snow
4:55 PM 33.4 °F 23.5 °F 29.5 °F 85% 29.56 in 5.0 mi NE 15.0 mph - 0.00 in   Overcast
5:30 PM 33.8 °F 25.8 °F 30.2 °F 87% 29.55 in 10.0 mi ENE 10.4 mph - N/A   Overcast
5:55 PM 34.0 °F 24.6 °F 29.8 °F 85% 29.52 in 10.0 mi NE 13.8 mph - N/A   Overcast
6:15 PM 33.8 °F 23.9 °F 30.2 °F 87% 29.51 in 10.0 mi NE 15.0 mph - N/A   Overcast
6:44 PM 33.8 °F 23.2 °F 30.2 °F 87% 29.49 in 5.0 mi NE 17.3 mph 23.0 mph N/A   Light Drizzle
6:55 PM 33.4 °F 21.7 °F 29.8 °F 87% 29.49 in 5.0 mi NE 20.7 mph 25.3 mph 0.00 in   Overcast
7:17 PM 33.8 °F 23.2 °F 28.4 °F 81% 29.49 in 10.0 mi ENE 17.3 mph - N/A   Overcast
7:48 PM 33.8 °F 23.5 °F 28.4 °F 81% 29.46 in 10.0 mi ENE 16.1 mph - N/A Rain , Snow Light Rain
7:55 PM 34.5 °F 24.5 °F 28.0 °F 77% 29.49 in 4.0 mi ENE 16.1 mph - 0.00 in Rain , Snow Light Rain
8:03 PM 33.8 °F 21.9 °F 28.4 °F 81% 29.47 in 4.0 mi ENE 21.9 mph 27.6 mph N/A Snow Light Snow
8:23 PM 33.8 °F 23.5 °F 30.2 °F 87% 29.45 in 1.5 mi ENE 16.1 mph - N/A Snow Light Snow
8:27 PM 33.8 °F 24.3 °F 30.2 °F 87% 29.45 in 1.2 mi ENE 13.8 mph - N/A Snow Light Snow
8:32 PM 33.8 °F 23.9 °F 30.2 °F 87% 29.46 in 1.0 mi ENE 15.0 mph - N/A Snow Light Snow
8:42 PM 32.0 °F 24.2 °F 30.2 °F 93% 29.46 in 1.5 mi ENE 9.2 mph - N/A Snow Light Snow
8:46 PM 32.0 °F 27.5 °F 30.2 °F 93% 29.47 in 2.0 mi ENE 4.6 mph - N/A Snow Light Snow
8:55 PM 32.7 °F 29.6 °F 30.7 °F 92% 29.49 in 2.0 mi ENE 3.5 mph - 0.03 in Snow Light Snow
9:31 PM 32.0 °F 24.8 °F 30.2 °F 93% 29.49 in 1.2 mi NE 8.1 mph - N/A Snow Light Snow
9:42 PM 32.0 °F 22.5 °F 32.0 °F 100% 29.49 in 1.2 mi ENE 12.7 mph - N/A Snow Light Snow
9:46 PM 32.0 °F 23.6 °F 30.2 °F 93% 29.49 in 1.0 mi ENE 10.4 mph - N/A Snow Light Snow
9:55 PM 32.4 °F 23.5 °F 31.1 °F 95% 29.48 in 1.0 mi NE 11.5 mph - 0.11 in Snow Light Snow
10:39 PM 32.0 °F 23.6 °F 30.2 °F 93% 29.45 in 1.0 mi NE 10.4 mph - N/A Snow Light Snow
10:42 PM 32.0 °F 23.6 °F 30.2 °F 93% 29.45 in 1.2 mi NNE 10.4 mph - N/A Snow Light Snow
10:55 PM 32.0 °F 24.8 °F 31.1 °F 96% 29.47 in 1.5 mi NE 8.1 mph - 0.11 in Snow Light Snow
11:12 PM 32.0 °F 24.8 °F 32.0 °F 100% 29.47 in 0.8 mi NNE 8.1 mph - N/A Snow Light Snow
11:21 PM 32.0 °F 24.8 °F 32.0 °F 100% 29.47 in 1.0 mi NNE 8.1 mph - N/A Snow Light Snow
11:37 PM 32.0 °F 26.4 °F 32.0 °F 100% 29.47 in 1.8 mi NNE 5.8 mph - N/A Snow Light Snow
11:55 PM 31.6 °F 25.1 °F 30.9 °F 97% 29.47 in 4.0 mi North 6.9 mph - 0.11 in Snow Light Snow